createdAt,value
2022-11-02T00:00:45.846Z,100.00
2022-11-02T00:03:14.561Z,100.00
2022-11-02T00:05:44.343Z,100.00
2022-11-02T00:08:13.679Z,100.00
2022-11-02T00:10:44.382Z,100.00
2022-11-02T00:13:13.193Z,100.00
2022-11-02T00:15:41.692Z,100.00
2022-11-02T00:18:14.202Z,100.00
2022-11-02T00:20:44.592Z,100.00
2022-11-02T00:23:14.211Z,100.00
2022-11-02T00:25:47.315Z,100.00
2022-11-02T00:28:16.308Z,100.00
2022-11-02T00:30:46.405Z,100.00
2022-11-02T00:33:15.183Z,100.00
2022-11-02T00:35:45.467Z,100.00
2022-11-02T00:38:14.025Z,100.00
2022-11-02T00:40:45.048Z,100.00
2022-11-02T00:43:14.566Z,100.00
2022-11-02T00:45:42.841Z,100.00
2022-11-02T00:48:11.720Z,100.00
2022-11-02T00:50:42.767Z,100.00
2022-11-02T00:53:11.195Z,100.00
2022-11-02T00:55:39.844Z,100.00
2022-11-02T00:58:12.167Z,100.00
2022-11-02T01:00:40.872Z,100.00
2022-11-02T01:03:12.029Z,100.00
2022-11-02T01:05:40.458Z,100.00
2022-11-02T01:08:10.172Z,100.00
2022-11-02T01:10:40.633Z,100.00
2022-11-02T01:13:14.312Z,100.00
2022-11-02T01:15:45.460Z,100.00
2022-11-02T01:18:15.454Z,100.00
2022-11-02T01:20:43.757Z,100.00
2022-11-02T01:23:12.242Z,100.00
2022-11-02T01:25:46.090Z,100.00
2022-11-02T01:28:15.744Z,100.00
2022-11-02T01:30:46.784Z,100.00
2022-11-02T01:33:16.182Z,100.00
2022-11-02T01:35:46.202Z,100.00
2022-11-02T01:38:17.374Z,100.00
2022-11-02T01:40:45.879Z,100.00
2022-11-02T01:43:23.683Z,100.00
2022-11-02T01:45:55.453Z,100.00
2022-11-02T01:48:29.871Z,100.00
2022-11-02T01:50:59.134Z,100.00
2022-11-02T01:53:27.304Z,100.00
2022-11-02T01:55:56.094Z,100.00
2022-11-02T01:58:26.497Z,100.00
2022-11-02T02:00:56.759Z,100.00
2022-11-02T02:03:26.048Z,100.00
2022-11-02T02:05:59.470Z,100.00
2022-11-02T02:08:29.910Z,100.00
2022-11-02T02:10:59.649Z,100.00
2022-11-02T02:13:30.862Z,100.00
2022-11-02T02:16:17.340Z,100.00
2022-11-02T02:18:50.795Z,100.00
2022-11-02T02:21:37.448Z,100.00
2022-11-02T02:24:22.518Z,100.00
2022-11-02T02:27:13.862Z,100.00
2022-11-02T02:30:04.882Z,100.00
2022-11-02T02:32:46.875Z,100.00
2022-11-02T02:35:29.936Z,100.00
2022-11-02T02:38:02.897Z,100.00
2022-11-02T02:40:35.800Z,100.00
2022-11-02T02:43:09.982Z,100.00
2022-11-02T02:45:46.985Z,100.00
2022-11-02T02:48:19.702Z,100.00
2022-11-02T02:50:52.899Z,100.00
2022-11-02T02:53:29.350Z,100.00
2022-11-02T02:56:04.251Z,100.00
2022-11-02T02:58:43.074Z,100.00
2022-11-02T03:01:16.965Z,100.00
2022-11-02T03:03:48.840Z,100.00
2022-11-02T03:06:21.897Z,100.00
2022-11-02T03:08:58.508Z,100.00
2022-11-02T03:11:26.976Z,100.00
2022-11-02T03:14:23.404Z,100.00
2022-11-02T03:17:06.464Z,100.00
2022-11-02T03:19:44.500Z,100.00
2022-11-02T03:22:23.021Z,100.00
2022-11-02T03:25:00.407Z,100.00
2022-11-02T03:27:38.947Z,100.00
2022-11-02T03:30:13.837Z,100.00
2022-11-02T03:32:54.068Z,100.00
2022-11-02T03:35:30.591Z,100.00
2022-11-02T03:38:03.752Z,100.00
2022-11-02T03:40:36.839Z,100.00
2022-11-02T03:43:07.356Z,100.00
2022-11-02T03:45:40.662Z,100.00
2022-11-02T03:48:12.899Z,100.00
2022-11-02T03:50:47.241Z,100.00
2022-11-02T03:53:20.658Z,100.00
2022-11-02T03:55:55.273Z,100.00
2022-11-02T03:58:23.769Z,100.00
2022-11-02T04:00:59.094Z,100.00
2022-11-02T04:03:30.114Z,100.00
2022-11-02T04:05:58.548Z,100.00
2022-11-02T04:08:33.378Z,100.00
2022-11-02T04:11:18.593Z,100.00
2022-11-02T04:14:04.716Z,100.00
2022-11-02T04:16:33.187Z,100.00
2022-11-02T04:19:20.727Z,100.00
2022-11-02T04:22:05.707Z,100.00
2022-11-02T04:24:52.886Z,100.00
2022-11-02T04:27:22.155Z,100.00
2022-11-02T04:29:51.152Z,100.00
2022-11-02T04:32:35.583Z,100.00
2022-11-02T04:35:08.807Z,100.00
2022-11-02T04:37:58.020Z,100.00
2022-11-02T04:40:26.649Z,100.00
2022-11-02T04:42:55.802Z,100.00
2022-11-02T04:45:24.689Z,100.00
2022-11-02T04:47:53.089Z,100.00
2022-11-02T04:50:23.163Z,100.00
2022-11-02T04:52:57.751Z,100.00
2022-11-02T04:55:26.255Z,100.00
2022-11-02T04:57:54.915Z,100.00
2022-11-02T05:00:23.845Z,100.00
2022-11-02T05:02:52.925Z,100.00
2022-11-02T05:05:22.579Z,100.00
2022-11-02T05:07:51.057Z,100.00
2022-11-02T05:10:20.133Z,100.00
2022-11-02T05:12:48.502Z,100.00
2022-11-02T05:15:16.689Z,100.00
2022-11-02T05:17:45.220Z,100.00
2022-11-02T05:20:13.775Z,100.00
2022-11-02T05:22:44.921Z,100.00
2022-11-02T05:25:14.117Z,100.00
2022-11-02T05:27:43.494Z,100.00
2022-11-02T05:30:13.783Z,100.00
2022-11-02T05:32:42.171Z,100.00
2022-11-02T05:35:10.834Z,100.00
2022-11-02T05:37:38.922Z,100.00
2022-11-02T05:40:11.080Z,100.00
2022-11-02T05:42:39.411Z,100.00
2022-11-02T05:45:08.793Z,100.00
2022-11-02T05:47:38.640Z,100.00
2022-11-02T05:50:08.501Z,100.00
2022-11-02T05:52:37.448Z,100.00
2022-11-02T05:55:06.851Z,100.00
2022-11-02T05:57:37.780Z,100.00
2022-11-02T06:00:07.888Z,100.00
2022-11-02T06:02:37.374Z,100.00
2022-11-02T06:05:06.450Z,100.00
2022-11-02T06:07:37.138Z,100.00
2022-11-02T06:10:07.837Z,100.00
2022-11-02T06:12:37.669Z,100.00
2022-11-02T06:15:06.708Z,100.00
2022-11-02T06:17:41.235Z,100.00
2022-11-02T06:20:10.875Z,100.00
2022-11-02T06:22:42.500Z,100.00
2022-11-02T06:25:11.892Z,100.00
2022-11-02T06:27:45.844Z,100.00
2022-11-02T06:30:14.965Z,100.00
2022-11-02T06:32:48.696Z,100.00
2022-11-02T06:35:18.932Z,100.00
2022-11-02T06:37:50.023Z,100.00
2022-11-02T06:40:21.370Z,100.00
2022-11-02T06:43:15.494Z,100.00
2022-11-02T06:45:53.543Z,100.00
2022-11-02T06:48:21.778Z,100.00
2022-11-02T06:50:50.277Z,100.00
2022-11-02T06:53:20.316Z,100.00
2022-11-02T06:55:53.394Z,100.00
2022-11-02T06:58:24.736Z,100.00
2022-11-02T07:00:59.004Z,100.00
2022-11-02T07:03:28.760Z,100.00
2022-11-02T07:05:59.626Z,100.00
2022-11-02T07:08:29.963Z,100.00
2022-11-02T07:10:58.939Z,100.00
2022-11-02T07:13:29.899Z,100.00
2022-11-02T07:15:58.869Z,100.00
2022-11-02T07:18:27.577Z,100.00
2022-11-02T07:20:55.908Z,100.00
2022-11-02T07:23:24.427Z,100.00
2022-11-02T07:25:53.199Z,100.00
2022-11-02T07:28:22.025Z,100.00
2022-11-02T07:30:55.346Z,100.00
2022-11-02T07:33:24.512Z,100.00
2022-11-02T07:35:52.871Z,100.00
2022-11-02T07:38:21.095Z,100.00
2022-11-02T07:40:51.279Z,100.00
2022-11-02T07:43:19.715Z,100.00
2022-11-02T07:45:48.032Z,100.00
2022-11-02T07:48:19.296Z,100.00
2022-11-02T07:50:47.621Z,100.00
2022-11-02T07:53:15.735Z,100.00
2022-11-02T07:55:44.294Z,100.00
2022-11-02T07:58:15.492Z,100.00
2022-11-02T08:00:55.939Z,100.00
2022-11-02T08:03:30.293Z,100.00
2022-11-02T08:06:03.026Z,100.00
2022-11-02T08:08:32.372Z,100.00
2022-11-02T08:11:07.141Z,100.00
2022-11-02T08:13:36.647Z,100.00
2022-11-02T08:16:09.795Z,100.00
2022-11-02T08:18:41.410Z,100.00
2022-11-02T08:21:09.648Z,100.00
2022-11-02T08:23:38.237Z,100.00
2022-11-02T08:26:06.584Z,100.00
2022-11-02T08:28:36.795Z,100.00
2022-11-02T08:31:05.571Z,100.00
2022-11-02T08:33:35.066Z,100.00
2022-11-02T08:36:06.074Z,100.00
2022-11-02T08:38:34.674Z,100.00
2022-11-02T08:41:03.062Z,100.00
2022-11-02T08:43:33.366Z,100.00
2022-11-02T08:46:18.441Z,100.00
2022-11-02T08:48:47.054Z,100.00
2022-11-02T08:51:19.279Z,100.00
2022-11-02T08:53:51.624Z,100.00
2022-11-02T08:56:21.053Z,100.00
2022-11-02T08:58:49.471Z,100.00
2022-11-02T09:01:18.130Z,100.00
2022-11-02T09:03:47.168Z,100.00
2022-11-02T09:06:17.019Z,100.00
2022-11-02T09:08:45.656Z,100.00
2022-11-02T09:11:14.148Z,100.00
2022-11-02T09:13:42.724Z,100.00
2022-11-02T09:16:10.973Z,100.00
2022-11-02T09:18:39.538Z,100.00
2022-11-02T09:21:08.603Z,100.00
2022-11-02T09:23:38.927Z,100.00
2022-11-02T09:26:07.529Z,100.00
2022-11-02T09:28:35.953Z,100.00
2022-11-02T09:31:07.485Z,100.00
2022-11-02T09:33:38.844Z,100.00
2022-11-02T09:36:07.955Z,100.00
2022-11-02T09:38:38.342Z,100.00
2022-11-02T09:41:14.200Z,100.00
2022-11-02T09:44:01.558Z,100.00
2022-11-02T09:46:33.388Z,100.00
2022-11-02T09:49:07.222Z,100.00
2022-11-02T09:51:38.630Z,100.00
2022-11-02T09:54:25.583Z,100.00
2022-11-02T09:57:00.155Z,100.00
2022-11-02T09:59:29.058Z,100.00
2022-11-02T10:02:05.523Z,100.00
2022-11-02T10:05:05.125Z,100.00
2022-11-02T10:08:01.929Z,100.00
2022-11-02T10:10:51.700Z,100.00
2022-11-02T10:13:32.328Z,100.00
2022-11-02T10:16:07.193Z,100.00
2022-11-02T10:18:37.770Z,100.00
2022-11-02T10:21:09.887Z,100.00
2022-11-02T10:23:42.444Z,100.00
2022-11-02T10:26:19.292Z,100.00
2022-11-02T10:28:50.473Z,100.00
2022-11-02T10:31:26.911Z,100.00
2022-11-02T10:33:58.120Z,100.00
2022-11-02T10:36:42.480Z,100.00
2022-11-02T10:39:23.634Z,100.00
2022-11-02T10:42:31.069Z,100.00
2022-11-02T10:45:20.102Z,100.00
2022-11-02T10:48:04.868Z,100.00
2022-11-02T10:50:46.186Z,100.00
2022-11-02T10:53:40.980Z,100.00
2022-11-02T10:56:17.706Z,100.00
2022-11-02T10:58:57.586Z,100.00
2022-11-02T11:01:28.366Z,100.00
2022-11-02T11:03:59.712Z,100.00
2022-11-02T11:06:32.623Z,100.00
2022-11-02T11:09:04.892Z,100.00
2022-11-02T11:11:37.847Z,100.00
2022-11-02T11:20:08.882Z,100.00
2022-11-02T11:22:38.727Z,100.00
2022-11-02T11:25:27.586Z,100.00
2022-11-02T11:27:58.001Z,100.00
2022-11-02T11:33:23.404Z,100.00
2022-11-02T11:35:52.997Z,100.00
2022-11-02T11:38:24.398Z,100.00
2022-11-02T11:40:56.267Z,100.00
2022-11-02T11:43:27.621Z,100.00
2022-11-02T11:46:05.227Z,100.00
2022-11-02T11:48:39.961Z,100.00
2022-11-02T11:51:29.983Z,100.00
2022-11-02T11:54:21.219Z,100.00
2022-11-02T11:56:51.097Z,100.00
2022-11-02T11:59:29.391Z,100.00
2022-11-02T12:02:01.336Z,100.00
2022-11-02T12:04:31.986Z,100.00
2022-11-02T12:07:21.851Z,100.00
2022-11-02T12:10:03.298Z,100.00
2022-11-02T12:12:43.167Z,100.00
2022-11-02T12:15:27.214Z,100.00
2022-11-02T12:18:16.152Z,100.00
2022-11-02T12:20:54.795Z,100.00
2022-11-02T12:23:57.508Z,100.00
2022-11-02T12:26:38.198Z,100.00
2022-11-02T12:29:21.012Z,100.00
2022-11-02T12:32:01.087Z,100.00
2022-11-02T12:35:02.756Z,100.00
2022-11-02T12:37:56.267Z,99.31
2022-11-02T12:40:31.537Z,96.44
2022-11-02T12:43:13.148Z,95.53
2022-11-02T12:45:48.934Z,89.98
2022-11-02T12:48:27.279Z,84.54
2022-11-02T12:51:03.982Z,90.71
2022-11-02T12:53:44.587Z,87.01
2022-11-02T12:56:19.551Z,83.76
2022-11-02T12:58:47.898Z,86.36
2022-11-02T13:01:23.511Z,86.78
2022-11-02T13:03:59.533Z,87.35
2022-11-02T13:06:35.815Z,88.44
2022-11-02T13:09:09.341Z,87.41
2022-11-02T13:11:41.137Z,84.55
2022-11-02T13:14:15.715Z,84.53
2022-11-02T13:16:50.607Z,93.85
2022-11-02T13:19:23.738Z,92.21
2022-11-02T13:21:57.973Z,91.58
2022-11-02T13:24:32.245Z,88.93
2022-11-02T13:29:58.613Z,82.10
2022-11-02T13:32:34.019Z,80.81
2022-11-02T13:35:08.154Z,79.11
2022-11-02T13:37:42.549Z,80.59
2022-11-02T13:40:17.935Z,79.68
2022-11-02T13:43:06.968Z,80.32
2022-11-02T13:46:04.099Z,76.35
2022-11-02T13:48:52.693Z,80.46
2022-11-02T13:51:30.206Z,81.01
2022-11-02T13:54:07.375Z,78.79
2022-11-02T13:56:38.820Z,78.62
2022-11-02T13:59:09.571Z,72.52
2022-11-02T14:01:42.751Z,75.92
2022-11-02T14:04:12.883Z,75.87
2022-11-02T14:06:48.912Z,79.92
2022-11-02T14:09:39.010Z,80.30
2022-11-02T14:12:29.476Z,83.54
2022-11-02T14:15:42.429Z,80.22
2022-11-02T14:18:32.864Z,81.24
2022-11-02T14:21:21.701Z,80.61
2022-11-02T14:23:49.835Z,81.54
2022-11-02T14:26:57.165Z,74.84
2022-11-02T14:29:40.964Z,80.69
2022-11-02T14:32:16.263Z,83.93
2022-11-02T14:35:05.835Z,80.10
2022-11-02T14:38:01.875Z,80.68
2022-11-02T14:40:35.804Z,87.30
2022-11-02T14:43:41.231Z,89.47
2022-11-02T14:46:21.739Z,90.55
2022-11-02T14:48:53.822Z,86.47
2022-11-02T14:51:26.755Z,83.92
2022-11-02T14:54:00.224Z,89.83
2022-11-02T14:56:50.675Z,87.91
2022-11-02T14:59:26.784Z,90.05
2022-11-02T15:01:58.705Z,88.69
2022-11-02T15:04:28.336Z,89.91
2022-11-02T15:07:00.197Z,86.56
2022-11-02T15:09:55.700Z,87.57
2022-11-02T15:12:33.863Z,89.35
2022-11-02T15:15:30.825Z,91.09
2022-11-02T15:18:33.226Z,94.65
2022-11-02T15:21:23.906Z,97.19
2022-11-02T15:24:17.713Z,95.79
2022-11-02T15:26:52.165Z,95.12
2022-11-02T15:29:34.616Z,96.50
2022-11-02T15:32:07.766Z,99.22
2022-11-02T15:34:40.831Z,100.00
2022-11-02T15:37:10.782Z,100.00
2022-11-02T15:39:39.559Z,100.00
2022-11-02T15:42:17.658Z,100.00
2022-11-02T15:45:51.655Z,100.00
2022-11-02T15:48:40.284Z,100.00
2022-11-02T15:51:18.582Z,100.00
2022-11-02T15:54:13.143Z,100.00
2022-11-02T15:56:51.586Z,100.00
2022-11-02T15:59:43.012Z,100.00
2022-11-02T16:02:23.841Z,100.00
2022-11-02T16:04:57.099Z,100.00
2022-11-02T16:07:38.108Z,100.00
2022-11-02T16:10:23.074Z,100.00
2022-11-02T16:12:59.026Z,100.00
2022-11-02T16:15:28.797Z,100.00
2022-11-02T16:17:58.504Z,100.00
2022-11-02T16:20:30.364Z,100.00
2022-11-02T16:23:01.616Z,100.00
2022-11-02T16:25:39.501Z,100.00
2022-11-02T16:28:17.502Z,100.00
2022-11-02T16:30:59.010Z,100.00
2022-11-02T16:33:30.024Z,100.00
2022-11-02T16:36:01.661Z,100.00
2022-11-02T16:38:30.251Z,100.00
2022-11-02T16:40:59.955Z,100.00
2022-11-02T16:43:29.089Z,100.00
2022-11-02T16:46:04.366Z,100.00
2022-11-02T16:48:35.061Z,100.00
2022-11-02T16:51:19.444Z,100.00
2022-11-02T16:53:48.194Z,100.00
2022-11-02T16:56:28.938Z,100.00
2022-11-02T16:59:01.978Z,100.00
2022-11-02T17:01:39.302Z,100.00
2022-11-02T17:04:24.517Z,100.00
2022-11-02T17:06:57.456Z,100.00
2022-11-02T17:09:29.228Z,100.00
2022-11-02T17:12:01.395Z,100.00
2022-11-02T17:14:30.397Z,100.00
2022-11-02T17:17:02.665Z,100.00
2022-11-02T17:19:48.191Z,100.00
2022-11-02T17:22:25.512Z,100.00
2022-11-02T17:25:14.116Z,100.00
2022-11-02T17:27:42.792Z,100.00
2022-11-02T17:30:44.820Z,100.00
2022-11-02T17:33:28.096Z,100.00
2022-11-02T17:35:59.063Z,100.00
2022-11-02T17:38:29.076Z,100.00
2022-11-02T17:40:57.639Z,100.00
2022-11-02T17:43:25.930Z,100.00
2022-11-02T17:45:58.612Z,100.00
2022-11-02T17:48:29.197Z,100.00
2022-11-02T17:50:59.945Z,100.00
2022-11-02T17:53:30.625Z,100.00
2022-11-02T17:55:59.066Z,100.00
2022-11-02T17:58:27.528Z,100.00
2022-11-02T18:00:56.434Z,100.00
2022-11-02T18:03:31.200Z,100.00
2022-11-02T18:06:00.891Z,100.00
2022-11-02T18:08:30.767Z,100.00
2022-11-02T18:10:58.815Z,100.00
2022-11-02T18:13:27.139Z,100.00
2022-11-02T18:15:55.703Z,100.00
2022-11-02T18:18:23.786Z,100.00
2022-11-02T18:20:52.190Z,100.00
2022-11-02T18:23:22.071Z,100.00
2022-11-02T18:25:55.216Z,100.00
2022-11-02T18:28:26.770Z,100.00
2022-11-02T18:30:55.008Z,100.00
2022-11-02T18:33:23.088Z,100.00
2022-11-02T18:35:51.682Z,100.00
2022-11-02T18:38:20.171Z,100.00
2022-11-02T18:40:48.229Z,100.00
2022-11-02T18:43:18.001Z,100.00
2022-11-02T18:45:46.571Z,100.00
2022-11-02T18:48:14.695Z,100.00
2022-11-02T18:50:43.152Z,100.00
2022-11-02T18:53:12.875Z,100.00
2022-11-02T18:55:41.035Z,100.00
2022-11-02T18:58:11.659Z,100.00
2022-11-02T19:00:41.752Z,100.00
2022-11-02T19:03:11.900Z,100.00
2022-11-02T19:08:48.105Z,100.00
2022-11-02T19:11:19.337Z,100.00
2022-11-02T19:13:47.566Z,100.00
2022-11-02T19:16:17.407Z,100.00
2022-11-02T19:18:45.892Z,100.00
2022-11-02T19:21:14.345Z,100.00
2022-11-02T19:23:44.044Z,100.00
2022-11-02T19:26:12.408Z,100.00
2022-11-02T19:28:40.880Z,100.00
2022-11-02T19:31:09.631Z,100.00
2022-11-02T19:33:40.302Z,100.00
2022-11-02T19:36:09.315Z,100.00
2022-11-02T19:38:38.521Z,100.00
2022-11-02T19:41:10.799Z,100.00
2022-11-02T19:43:40.375Z,100.00
2022-11-02T19:46:11.361Z,100.00
2022-11-02T19:48:41.177Z,100.00
2022-11-02T19:51:13.347Z,100.00
2022-11-02T19:53:46.068Z,100.00
2022-11-02T19:56:16.207Z,100.00
2022-11-02T19:58:46.221Z,100.00
2022-11-02T20:01:16.766Z,100.00
2022-11-02T20:03:47.798Z,100.00
2022-11-02T20:06:20.278Z,100.00
2022-11-02T20:08:50.903Z,100.00
2022-11-02T20:11:20.205Z,100.00
2022-11-02T20:13:49.810Z,100.00
2022-11-02T20:16:20.301Z,100.00
2022-11-02T20:18:51.628Z,100.00
2022-11-02T20:21:21.279Z,100.00
2022-11-02T20:23:52.060Z,100.00
2022-11-02T20:26:24.454Z,100.00
2022-11-02T20:28:54.052Z,100.00
2022-11-02T20:31:24.337Z,100.00
2022-11-02T20:33:55.123Z,100.00
2022-11-02T20:36:23.476Z,100.00
2022-11-02T20:38:53.111Z,100.00
2022-11-02T20:41:23.964Z,100.00
2022-11-02T20:43:55.347Z,100.00
2022-11-02T20:46:42.248Z,100.00
2022-11-02T20:49:21.960Z,100.00
2022-11-02T20:52:03.602Z,100.00
2022-11-02T20:54:32.095Z,100.00
2022-11-02T20:57:00.549Z,100.00
2022-11-02T20:59:29.203Z,100.00
2022-11-02T21:01:58.012Z,100.00
2022-11-02T21:04:28.229Z,100.00
2022-11-02T21:06:57.054Z,100.00
2022-11-02T21:09:25.497Z,100.00
2022-11-02T21:12:11.371Z,100.00
2022-11-02T21:14:40.099Z,100.00
2022-11-02T21:17:08.682Z,100.00
2022-11-02T21:19:38.868Z,100.00
2022-11-02T21:22:07.992Z,100.00
2022-11-02T21:24:36.414Z,100.00
2022-11-02T21:27:07.177Z,100.00
2022-11-02T21:29:36.504Z,100.00
2022-11-02T21:32:05.779Z,100.00
2022-11-02T21:34:35.522Z,100.00
2022-11-02T21:37:07.203Z,100.00
2022-11-02T21:39:36.396Z,100.00
2022-11-02T21:42:05.906Z,100.00
2022-11-02T21:44:35.285Z,100.00
2022-11-02T21:47:03.762Z,100.00
2022-11-02T21:49:32.326Z,100.00
2022-11-02T21:52:01.115Z,100.00
2022-11-02T21:54:31.796Z,100.00
2022-11-02T21:57:00.296Z,100.00
2022-11-02T21:59:29.218Z,100.00
2022-11-02T22:01:56.438Z,100.00
2022-11-02T22:04:28.770Z,100.00
2022-11-02T22:06:57.779Z,100.00
2022-11-02T22:09:29.761Z,100.00
2022-11-02T22:12:17.912Z,100.00
2022-11-02T22:14:46.561Z,100.00
2022-11-02T22:17:43.304Z,100.00
2022-11-02T22:20:04.504Z,100.00
2022-11-02T22:22:33.159Z,100.00
2022-11-02T22:25:01.516Z,100.00
2022-11-02T22:27:31.914Z,100.00
2022-11-02T22:30:00.230Z,100.00
2022-11-02T22:32:28.422Z,100.00
2022-11-02T22:34:57.082Z,100.00
2022-11-02T22:37:43.115Z,100.00
2022-11-02T22:40:12.330Z,100.00
2022-11-02T22:42:42.720Z,100.00
2022-11-02T22:45:12.156Z,100.00
2022-11-02T22:47:41.382Z,100.00
2022-11-02T22:50:10.094Z,100.00
2022-11-02T22:52:38.427Z,100.00
2022-11-02T22:55:08.683Z,100.00
2022-11-02T22:57:36.862Z,100.00
2022-11-02T23:00:08.444Z,100.00
2022-11-02T23:02:36.842Z,100.00
2022-11-02T23:05:08.205Z,100.00
2022-11-02T23:07:37.859Z,100.00
2022-11-02T23:10:27.062Z,100.00
2022-11-02T23:12:54.375Z,100.00
2022-11-02T23:15:24.022Z,100.00
2022-11-02T23:17:52.449Z,100.00
2022-11-02T23:20:19.476Z,100.00
2022-11-02T23:23:05.292Z,100.00
2022-11-02T23:25:33.611Z,100.00
2022-11-02T23:28:18.938Z,100.00
2022-11-02T23:31:06.074Z,100.00
2022-11-02T23:33:36.468Z,100.00
2022-11-02T23:36:11.556Z,100.00
2022-11-02T23:38:59.221Z,100.00
2022-11-02T23:41:28.861Z,100.00
2022-11-02T23:44:12.744Z,100.00
2022-11-02T23:46:46.163Z,100.00
2022-11-02T23:49:15.370Z,100.00
2022-11-02T23:52:01.434Z,100.00
2022-11-02T23:54:47.086Z,100.00
2022-11-02T23:57:15.351Z,100.00
2022-11-02T23:59:43.723Z,100.00
